Time;durP1;ratioP1;P1;durP2;ratioP2;P2;SDS_P1;SDS_P2;PMS_P1;PMS_P2;Temp;Humidity;BMP_temperature;BMP_pressure;BME280_temperature;BME280_humidity;BME280_pressure;Samples;Min_cycle;Max_cycle;Signal;HPM_P1;HPM_P2
2022/03/05 00:02:03;;;;;;;8.90;5.93;;;1.90;50.00;;;;;;7374640;19;20185;-46
2022/03/05 00:04:33;;;;;;;11.13;6.93;;;2.00;49.90;;;;;;7376310;19;20135;-46
2022/03/05 00:07:05;;;;;;;12.85;7.57;;;1.90;49.90;;;;;;7372039;19;20530;-46
2022/03/05 00:09:35;;;;;;;8.77;5.65;;;1.90;49.80;;;;;;7377444;19;20142;-46
2022/03/05 00:12:05;;;;;;;9.85;6.30;;;1.90;50.10;;;;;;7373027;19;20154;-46
2022/03/05 00:14:37;;;;;;;10.23;6.22;;;1.90;50.30;;;;;;7370330;19;20147;-46
2022/03/05 00:17:10;;;;;;;11.95;7.40;;;1.90;50.20;;;;;;7371592;19;20489;-46
2022/03/05 00:19:43;;;;;;;9.68;6.47;;;1.80;50.20;;;;;;7375380;19;20136;-46
2022/03/05 00:22:12;;;;;;;9.52;6.38;;;1.80;50.20;;;;;;7375673;19;20148;-46
2022/03/05 00:24:45;;;;;;;10.48;6.07;;;1.80;50.30;;;;;;7375389;19;20633;-46
2022/03/05 00:27:17;;;;;;;10.15;5.95;;;1.80;50.50;;;;;;7377122;19;20496;-46
2022/03/05 00:29:50;;;;;;;12.13;6.05;;;1.80;50.50;;;;;;7369707;19;20161;-45
2022/03/05 00:32:22;;;;;;;9.40;5.97;;;1.70;50.30;;;;;;7371395;19;20733;-45
2022/03/05 00:34:51;;;;;;;8.43;5.88;;;1.80;50.20;;;;;;7369476;19;20154;-46
2022/03/05 00:37:21;;;;;;;12.43;5.97;;;1.80;50.10;;;;;;7374081;19;20141;-46
2022/03/05 00:39:51;;;;;;;12.65;6.38;;;1.80;50.00;;;;;;7374114;19;20728;-46
2022/03/05 00:42:22;;;;;;;11.43;6.30;;;1.80;50.40;;;;;;7373483;19;20484;-45
2022/03/05 00:44:54;;;;;;;11.82;5.45;;;1.70;50.50;;;;;;7369927;19;20597;-46
2022/03/05 00:47:26;;;;;;;8.23;5.32;;;1.70;50.50;;;;;;7374076;19;20131;-45
2022/03/05 00:49:56;;;;;;;13.13;7.32;;;1.70;50.80;;;;;;7374320;19;20484;-45
2022/03/05 00:52:25;;;;;;;10.43;5.95;;;1.60;51.00;;;;;;7371454;19;21278;-46
2022/03/05 00:54:55;;;;;;;8.30;5.05;;;1.60;51.00;;;;;;7370982;19;20254;-45
2022/03/05 00:57:24;;;;;;;11.18;5.40;;;1.50;51.10;;;;;;7372236;19;20191;-46
2022/03/05 00:59:56;;;;;;;7.82;5.75;;;1.60;51.00;;;;;;7378410;19;20151;-46
2022/03/05 01:02:28;;;;;;;7.50;5.32;;;1.60;50.90;;;;;;7375085;19;20158;-46
2022/03/05 01:04:57;;;;;;;9.38;5.43;;;1.70;50.70;;;;;;7372145;19;20127;-45
2022/03/05 01:07:29;;;;;;;7.75;4.70;;;1.70;50.40;;;;;;7375661;19;20150;-45
2022/03/05 01:10:03;;;;;;;7.35;4.82;;;1.80;50.30;;;;;;7373931;19;20154;-43
2022/03/05 01:12:33;;;;;;;9.98;5.55;;;1.80;50.40;;;;;;7368185;19;20128;-43
2022/03/05 01:15:09;;;;;;;11.65;6.00;;;1.80;50.30;;;;;;7366637;19;21100;-43
2022/03/05 01:17:39;;;;;;;9.50;5.20;;;1.70;50.60;;;;;;7376087;19;20131;-42
2022/03/05 01:20:12;;;;;;;7.20;4.43;;;1.70;51.00;;;;;;7373321;19;20150;-42
2022/03/05 01:22:41;;;;;;;11.25;5.20;;;1.60;51.00;;;;;;7373085;19;20803;-42
2022/03/05 01:25:14;;;;;;;8.88;4.93;;;1.60;50.80;;;;;;7373029;19;20135;-43
2022/03/05 01:27:46;;;;;;;11.05;5.70;;;1.50;51.40;;;;;;7372833;19;20545;-43
2022/03/05 01:30:18;;;;;;;10.27;5.63;;;1.50;51.60;;;;;;7363194;19;20511;-43
2022/03/05 01:32:52;;;;;;;8.00;5.10;;;1.40;51.90;;;;;;7372287;19;20502;-44
2022/03/05 01:35:22;;;;;;;8.88;6.18;;;1.40;52.00;;;;;;7375976;19;20917;-42
2022/03/05 01:37:54;;;;;;;8.85;6.20;;;1.40;52.00;;;;;;7376185;19;20144;-41
2022/03/05 01:40:28;;;;;;;10.00;5.47;;;1.30;52.20;;;;;;7373501;19;20513;-43
2022/03/05 01:42:57;;;;;;;11.27;5.15;;;1.30;52.40;;;;;;7375536;19;20131;-41
2022/03/05 01:45:30;;;;;;;10.50;6.35;;;1.30;52.30;;;;;;7377783;19;20138;-41
2022/03/05 01:48:03;;;;;;;13.30;6.70;;;1.30;52.40;;;;;;7362688;19;20123;-43
2022/03/05 01:50:33;;;;;;;12.20;6.82;;;1.30;52.30;;;;;;7371219;19;20135;-42
2022/03/05 01:53:07;;;;;;;9.00;6.07;;;1.40;52.00;;;;;;7375957;19;20542;-41
2022/03/05 01:55:41;;;;;;;13.35;6.97;;;1.40;51.90;;;;;;7373722;19;20206;-41
2022/03/05 01:58:11;;;;;;;8.45;5.97;;;1.40;52.60;;;;;;7373735;19;20707;-41
2022/03/05 02:00:45;;;;;;;10.15;5.63;;;1.40;52.20;;;;;;7375488;19;20506;-42
2022/03/05 02:03:15;;;;;;;9.75;5.93;;;1.30;52.00;;;;;;7372170;19;20136;-42
2022/03/05 02:05:44;;;;;;;9.65;5.90;;;1.30;52.30;;;;;;7374683;19;20143;-41
2022/03/05 02:08:14;;;;;;;9.40;5.70;;;1.30;52.70;;;;;;7371903;19;20220;-42
2022/03/05 02:10:43;;;;;;;9.75;5.30;;;1.20;53.30;;;;;;7370006;19;20135;-42
2022/03/05 02:13:15;;;;;;;10.30;6.40;;;1.20;53.00;;;;;;7376034;19;20147;-42
2022/03/05 02:15:47;;;;;;;9.75;5.47;;;1.20;53.00;;;;;;7375861;19;20131;-42
2022/03/05 02:18:16;;;;;;;10.70;6.00;;;1.10;53.30;;;;;;7378513;19;20124;-42
2022/03/05 02:20:49;;;;;;;14.20;6.95;;;1.10;53.20;;;;;;7374219;19;20132;-42
2022/03/05 02:23:21;;;;;;;12.65;6.55;;;1.10;53.40;;;;;;7368415;19;20517;-42
2022/03/05 02:25:58;;;;;;;12.35;6.80;;;1.00;53.30;;;;;;7370400;19;20148;-44
2022/03/05 02:28:34;;;;;;;16.10;7.65;;;1.10;53.50;;;;;;7368609;19;20119;-42
2022/03/05 02:31:03;;;;;;;11.38;6.88;;;1.10;53.40;;;;;;7363931;19;20135;-43
2022/03/05 02:33:38;;;;;;;15.35;7.20;;;1.10;53.60;;;;;;7366493;19;20147;-42
2022/03/05 02:36:13;;;;;;;10.55;6.35;;;1.00;53.80;;;;;;7374702;19;20151;-42
2022/03/05 02:38:43;;;;;;;12.02;5.60;;;1.00;53.60;;;;;;7372088;19;20124;-42
2022/03/05 02:41:12;;;;;;;10.40;6.30;;;1.00;53.80;;;;;;7371503;19;20140;-42
2022/03/05 02:43:44;;;;;;;10.48;6.03;;;1.00;53.60;;;;;;7368564;19;20135;-42
2022/03/05 02:46:18;;;;;;;11.27;6.65;;;1.00;53.80;;;;;;7364744;19;20589;-43
2022/03/05 02:48:50;;;;;;;12.70;6.68;;;0.90;53.80;;;;;;7363748;19;20132;-42
2022/03/05 02:51:23;;;;;;;8.52;6.20;;;0.90;54.10;;;;;;7370978;19;22480;-46
2022/03/05 02:53:52;;;;;;;9.52;5.95;;;1.00;54.30;;;;;;7366975;19;20147;-44
2022/03/05 02:56:27;;;;;;;9.35;5.68;;;1.00;54.00;;;;;;7370925;19;20142;-46
2022/03/05 02:58:58;;;;;;;9.30;6.13;;;1.00;54.00;;;;;;7371321;19;20199;-45
2022/03/05 03:01:28;;;;;;;9.73;6.07;;;1.00;54.10;;;;;;7359125;19;20165;-45
2022/03/05 03:03:58;;;;;;;11.63;7.00;;;0.90;54.10;;;;;;7373661;19;20139;-45
2022/03/05 03:06:32;;;;;;;10.40;5.50;;;0.90;54.30;;;;;;7369434;19;20127;-46
2022/03/05 03:09:02;;;;;;;12.50;6.25;;;0.90;54.60;;;;;;7369396;19;20135;-45
2022/03/05 03:11:37;;;;;;;11.07;6.40;;;0.90;54.40;;;;;;7364387;19;20138;-45
2022/03/05 03:14:09;;;;;;;8.80;5.22;;;0.80;54.60;;;;;;7370089;19;20138;-46
2022/03/05 03:16:42;;;;;;;12.73;6.68;;;0.80;54.70;;;;;;7361567;19;20138;-45
2022/03/05 03:19:11;;;;;;;11.30;5.40;;;0.80;54.70;;;;;;7371866;19;20176;-45
2022/03/05 03:21:46;;;;;;;9.27;5.88;;;0.80;54.80;;;;;;7370601;19;20141;-42
2022/03/05 03:24:15;;;;;;;9.65;5.30;;;0.80;55.10;;;;;;7372864;19;20193;-42
2022/03/05 03:26:47;;;;;;;11.23;5.47;;;0.80;54.80;;;;;;7368366;19;20746;-42
2022/03/05 03:29:18;;;;;;;10.18;5.38;;;0.70;55.10;;;;;;7362612;19;20613;-43
2022/03/05 03:31:48;;;;;;;10.45;5.72;;;0.70;55.20;;;;;;7364760;19;20169;-42
2022/03/05 03:34:20;;;;;;;8.02;5.07;;;0.70;54.90;;;;;;7370603;19;20161;-43
2022/03/05 03:36:52;;;;;;;10.55;5.60;;;0.70;54.90;;;;;;7368181;19;20386;-44
2022/03/05 03:39:24;;;;;;;9.27;5.20;;;0.80;55.10;;;;;;7368389;19;21056;-43
2022/03/05 03:41:55;;;;;;;9.90;5.40;;;0.80;54.70;;;;;;7369450;19;20166;-43
2022/03/05 03:44:25;;;;;;;10.82;5.85;;;0.80;54.60;;;;;;7363844;19;20136;-42
2022/03/05 03:46:57;;;;;;;9.35;5.55;;;0.70;55.00;;;;;;7361989;19;20187;-43
2022/03/05 03:49:27;;;;;;;11.60;5.85;;;0.70;55.40;;;;;;7370666;19;20255;-44
2022/03/05 03:51:59;;;;;;;11.75;5.35;;;0.60;54.90;;;;;;7369497;19;20140;-46
2022/03/05 03:54:31;;;;;;;11.52;5.00;;;0.60;55.00;;;;;;7368344;19;20130;-45
2022/03/05 03:57:01;;;;;;;10.68;6.10;;;0.50;55.20;;;;;;7371127;19;20590;-45
2022/03/05 03:59:31;;;;;;;10.27;5.55;;;0.50;55.20;;;;;;7369970;19;20840;-46
2022/03/05 04:02:04;;;;;;;10.27;6.28;;;0.50;55.40;;;;;;7367729;19;20143;-46
2022/03/05 04:04:33;;;;;;;12.82;7.35;;;0.40;55.70;;;;;;7370973;19;20131;-43
2022/03/05 04:09:48;;;;;;;9.20;4.97;;;0.30;56.10;;;;;;7363310;19;20744;-46
2022/03/05 04:12:19;;;;;;;8.80;5.30;;;0.40;56.10;;;;;;7369430;19;20153;-45
2022/03/05 04:14:51;;;;;;;10.70;6.30;;;0.40;56.00;;;;;;7368286;19;20167;-45
2022/03/05 04:17:23;;;;;;;10.20;5.63;;;0.40;56.20;;;;;;7374092;19;20585;-45
2022/03/05 04:19:53;;;;;;;10.38;5.90;;;0.40;56.40;;;;;;7377026;19;20529;-45
2022/03/05 04:22:25;;;;;;;11.18;5.72;;;0.40;56.20;;;;;;7379355;19;20225;-44
2022/03/05 04:24:57;;;;;;;10.23;5.53;;;0.30;56.70;;;;;;7372595;19;20147;-45
2022/03/05 04:27:27;;;;;;;11.32;6.22;;;0.40;56.60;;;;;;7377220;19;20139;-45
2022/03/05 04:29:56;;;;;;;10.95;5.65;;;0.30;56.30;;;;;;7373638;19;20128;-44
2022/03/05 04:32:26;;;;;;;7.93;5.07;;;0.40;56.20;;;;;;7369494;19;20622;-45
2022/03/05 04:34:55;;;;;;;8.50;5.75;;;0.40;56.60;;;;;;7371762;19;20186;-46
2022/03/05 04:37:27;;;;;;;13.30;7.32;;;0.40;56.70;;;;;;7373394;19;20128;-45
2022/03/05 04:39:59;;;;;;;10.05;6.55;;;0.40;56.40;;;;;;7375107;19;20135;-45
2022/03/05 04:42:29;;;;;;;12.52;6.38;;;0.40;56.20;;;;;;7375401;19;20128;-45
2022/03/05 04:45:01;;;;;;;8.90;6.00;;;0.40;56.50;;;;;;7375525;19;20476;-45
2022/03/05 04:47:33;;;;;;;13.98;6.93;;;0.30;56.70;;;;;;7367975;19;20590;-45
2022/03/05 04:50:02;;;;;;;10.88;6.55;;;0.30;56.90;;;;;;7372257;19;20199;-45
2022/03/05 04:52:36;;;;;;;14.93;7.07;;;0.30;57.00;;;;;;7375671;19;20954;-45
2022/03/05 04:55:09;;;;;;;12.77;7.20;;;0.30;57.00;;;;;;7374165;19;20131;-44
2022/03/05 04:57:39;;;;;;;9.80;6.57;;;0.30;57.20;;;;;;7374859;19;20772;-45
2022/03/05 05:00:14;;;;;;;14.93;6.55;;;0.30;57.30;;;;;;7373188;19;20640;-45
2022/03/05 05:02:45;;;;;;;14.18;7.70;;;0.20;57.20;;;;;;7376768;19;20166;-45
2022/03/05 05:05:15;;;;;;;10.85;6.78;;;0.20;57.50;;;;;;7370396;19;20165;-45
2022/03/05 05:07:47;;;;;;;12.35;6.78;;;0.10;57.50;;;;;;7370408;19;20127;-45
2022/03/05 05:10:17;;;;;;;10.93;6.47;;;0.10;57.30;;;;;;7364804;19;20128;-45
2022/03/05 05:12:46;;;;;;;10.88;6.55;;;0.00;57.60;;;;;;7375427;19;20136;-46
2022/03/05 05:15:16;;;;;;;11.93;7.03;;;0.10;58.10;;;;;;7368556;19;20130;-45
2022/03/05 05:17:45;;;;;;;9.88;5.70;;;0.10;58.10;;;;;;7372964;19;20647;-42
2022/03/05 05:20:15;;;;;;;10.75;6.75;;;0.10;57.70;;;;;;7374254;19;20136;-41
2022/03/05 05:22:49;;;;;;;13.70;6.57;;;0.10;57.90;;;;;;7369082;19;20154;-40
2022/03/05 05:25:19;;;;;;;12.77;6.57;;;0.10;58.00;;;;;;7371455;19;20134;-40
2022/03/05 05:27:50;;;;;;;14.23;6.82;;;0.10;58.10;;;;;;7379039;19;20143;-40
2022/03/05 05:30:22;;;;;;;14.57;6.93;;;0.10;57.80;;;;;;7374728;19;20132;-42
2022/03/05 05:32:52;;;;;;;17.88;7.97;;;0.00;58.00;;;;;;7370811;19;20155;-40
2022/03/05 05:35:22;;;;;;;10.75;6.65;;;0.00;58.30;;;;;;7375179;19;20188;-41
2022/03/05 05:37:56;;;;;;;13.93;8.85;;;0.00;58.50;;;;;;7377518;19;20128;-41
2022/03/05 05:40:25;;;;;;;19.48;8.65;;;-0.10;58.40;;;;;;7374179;19;20160;-41
2022/03/05 05:42:58;;;;;;;13.93;8.38;;;0.00;58.70;;;;;;7375863;19;20144;-41
2022/03/05 05:45:33;;;;;;;15.25;7.90;;;0.00;58.80;;;;;;7373308;19;20142;-41
2022/03/05 05:48:03;;;;;;;20.25;7.47;;;0.00;58.40;;;;;;7364864;19;20146;-41
2022/03/05 05:50:33;;;;;;;12.73;7.65;;;0.00;58.50;;;;;;7371325;19;20128;-41
2022/03/05 05:53:07;;;;;;;21.63;7.88;;;-0.10;58.50;;;;;;7373136;19;20131;-41
2022/03/05 05:55:42;;;;;;;12.90;7.70;;;-0.10;58.80;;;;;;7370139;19;20127;-41
2022/03/05 05:58:11;;;;;;;16.23;8.27;;;-0.10;59.20;;;;;;7373429;19;20143;-41
2022/03/05 06:00:43;;;;;;;14.90;7.75;;;-0.10;59.20;;;;;;7368235;19;20146;-44
2022/03/05 06:03:15;;;;;;;12.30;6.32;;;-0.10;59.40;;;;;;7365204;19;20136;-44
2022/03/05 06:05:45;;;;;;;15.90;7.72;;;-0.20;59.30;;;;;;7362858;19;20478;-43
2022/03/05 06:08:17;;;;;;;11.82;6.72;;;-0.20;59.70;;;;;;7375836;19;20640;-44
2022/03/05 06:10:46;;;;;;;12.75;8.63;;;-0.20;59.60;;;;;;7376678;19;20144;-44
2022/03/05 06:13:16;;;;;;;22.70;10.15;;;-0.10;59.40;;;;;;7365694;19;20582;-43
2022/03/05 06:15:45;;;;;;;14.23;7.85;;;-0.10;59.90;;;;;;7370513;19;20154;-44
2022/03/05 06:18:18;;;;;;;15.60;7.57;;;-0.10;59.40;;;;;;7370976;19;20128;-44
2022/03/05 06:20:50;;;;;;;15.50;9.23;;;-0.10;59.40;;;;;;7374041;19;20132;-44
2022/03/05 06:23:23;;;;;;;16.40;8.63;;;-0.10;59.70;;;;;;7365358;19;20136;-43
2022/03/05 06:25:55;;;;;;;18.45;9.13;;;0.00;59.70;;;;;;7368423;19;20652;-44
2022/03/05 06:28:27;;;;;;;15.50;8.73;;;0.00;59.40;;;;;;7355510;19;20139;-44
2022/03/05 06:31:02;;;;;;;19.15;9.60;;;-0.10;59.60;;;;;;7365817;19;20141;-44
2022/03/05 06:33:31;;;;;;;19.63;9.10;;;-0.10;59.70;;;;;;7355917;19;20482;-44
2022/03/05 06:36:03;;;;;;;17.08;10.10;;;-0.10;59.70;;;;;;7364042;19;20677;-44
2022/03/05 06:38:35;;;;;;;20.95;9.60;;;-0.10;59.70;;;;;;7301939;19;20718;-45
2022/03/05 06:41:05;;;;;;;17.95;9.45;;;-0.10;59.90;;;;;;7293721;19;20705;-44
2022/03/05 06:43:36;;;;;;;20.13;10.85;;;-0.10;60.00;;;;;;7291824;19;20134;-44
2022/03/05 06:46:08;;;;;;;16.63;9.05;;;-0.10;59.70;;;;;;7294236;19;20135;-45
2022/03/05 06:48:38;;;;;;;17.30;9.48;;;-0.10;60.70;;;;;;7301278;19;20127;-43
2022/03/05 06:51:07;;;;;;;16.48;9.45;;;-0.10;59.90;;;;;;7298261;19;20729;-44
2022/03/05 06:53:42;;;;;;;20.27;10.15;;;-0.10;60.00;;;;;;7298373;19;20529;-44
2022/03/05 06:56:12;;;;;;;18.77;9.40;;;0.00;60.20;;;;;;7298787;19;20166;-44
2022/03/05 06:58:41;;;;;;;22.08;9.45;;;0.00;60.20;;;;;;7291251;19;20919;-44
2022/03/05 07:01:11;;;;;;;17.95;9.57;;;0.10;60.10;;;;;;7300923;19;20411;-44
2022/03/05 07:03:40;;;;;;;20.73;10.38;;;0.10;60.00;;;;;;7298495;19;20466;-44
2022/03/05 07:06:10;;;;;;;20.30;10.88;;;0.10;59.80;;;;;;7315300;19;20127;-44
2022/03/05 07:08:44;;;;;;;14.82;8.55;;;0.20;60.20;;;;;;7304738;19;21113;-44
2022/03/05 07:11:16;;;;;;;14.10;9.30;;;0.30;59.90;;;;;;7308452;19;20715;-44
2022/03/05 07:13:48;;;;;;;19.02;9.40;;;0.40;59.20;;;;;;7310237;19;20688;-44
2022/03/05 07:16:17;;;;;;;18.73;9.23;;;0.30;59.20;;;;;;7313127;19;20139;-44
2022/03/05 07:18:49;;;;;;;17.45;9.48;;;0.40;59.30;;;;;;7307537;19;20625;-44
2022/03/05 07:21:21;;;;;;;20.33;8.85;;;0.40;59.40;;;;;;7294704;19;20533;-44
2022/03/05 07:23:53;;;;;;;16.88;9.07;;;0.40;59.20;;;;;;7304006;19;20135;-44
2022/03/05 07:26:22;;;;;;;20.65;10.77;;;0.50;58.90;;;;;;7295295;19;20136;-45
2022/03/05 07:28:52;;;;;;;17.63;9.35;;;0.70;58.60;;;;;;7293804;19;20364;-44
2022/03/05 07:31:25;;;;;;;19.15;10.60;;;0.70;58.20;;;;;;7299238;19;21024;-44
2022/03/05 07:33:54;;;;;;;19.45;9.20;;;0.80;58.20;;;;;;7288030;19;20171;-44
2022/03/05 07:36:24;;;;;;;19.20;9.32;;;0.70;58.20;;;;;;7287153;19;20135;-44
2022/03/05 07:38:56;;;;;;;17.35;10.38;;;0.80;58.10;;;;;;7285159;19;20685;-43
2022/03/05 07:41:25;;;;;;;17.02;9.10;;;0.90;57.80;;;;;;7295475;19;20131;-43
2022/03/05 07:43:57;;;;;;;15.63;9.40;;;1.00;57.40;;;;;;7289313;19;20132;-44
2022/03/05 07:46:29;;;;;;;15.00;8.68;;;1.20;57.10;;;;;;7289891;19;20235;-43
2022/03/05 07:48:59;;;;;;;25.42;9.90;;;1.40;57.00;;;;;;7312664;19;20551;-44
2022/03/05 07:51:29;;;;;;;15.02;8.93;;;1.60;56.40;;;;;;7305868;19;20136;-44
2022/03/05 07:54:01;;;;;;;15.82;8.60;;;1.80;56.40;;;;;;7310986;19;20526;-44
2022/03/05 07:56:34;;;;;;;19.55;9.05;;;1.80;55.70;;;;;;7307255;19;20746;-44
2022/03/05 07:59:03;;;;;;;19.90;10.05;;;2.00;55.70;;;;;;7311002;19;20438;-44
2022/03/05 08:01:33;;;;;;;17.65;10.05;;;2.20;54.90;;;;;;7311127;19;20144;-42
2022/03/05 08:04:05;;;;;;;17.88;10.15;;;2.30;54.60;;;;;;7303427;19;20577;-42
2022/03/05 08:06:34;;;;;;;17.50;9.55;;;2.40;54.90;;;;;;7298059;19;20151;-43
2022/03/05 08:09:06;;;;;;;17.00;9.20;;;2.50;54.30;;;;;;7309576;19;21961;-43
2022/03/05 08:11:38;;;;;;;20.38;10.48;;;2.70;54.20;;;;;;7309352;19;20218;-43
2022/03/05 08:14:08;;;;;;;16.50;10.35;;;3.00;53.80;;;;;;7312057;19;20221;-43
2022/03/05 08:16:37;;;;;;;21.17;9.80;;;3.10;53.40;;;;;;7298985;19;20755;-43
2022/03/05 08:19:07;;;;;;;19.48;10.43;;;3.50;53.20;;;;;;7312462;19;20138;-43
2022/03/05 08:21:36;;;;;;;21.52;12.02;;;3.80;52.10;;;;;;7300911;19;20144;-43
2022/03/05 08:24:09;;;;;;;24.25;12.27;;;3.90;50.40;;;;;;7319591;19;20131;-44
2022/03/05 08:26:39;;;;;;;18.77;10.73;;;4.50;50.40;;;;;;7306000;19;20479;-44
2022/03/05 08:29:09;;;;;;;20.45;12.13;;;5.20;49.10;;;;;;7310746;19;20604;-44
2022/03/05 08:31:38;;;;;;;20.40;12.15;;;5.90;47.30;;;;;;7314021;19;20624;-46
2022/03/05 08:34:10;;;;;;;22.20;12.43;;;6.60;46.10;;;;;;7294524;19;23426;-46
2022/03/05 08:36:39;;;;;;;20.35;11.80;;;7.10;44.20;;;;;;7300670;19;20525;-46
2022/03/05 08:39:11;;;;;;;19.40;11.80;;;7.30;42.80;;;;;;7307835;19;22002;-47
2022/03/05 08:41:41;;;;;;;18.10;11.93;;;7.50;42.70;;;;;;7302478;19;20967;-47
2022/03/05 08:44:11;;;;;;;19.27;11.20;;;7.60;42.20;;;;;;7302332;19;20377;-48
2022/03/05 08:46:40;;;;;;;20.47;12.80;;;7.60;42.00;;;;;;7294116;19;20869;-45
2022/03/05 08:49:14;;;;;;;21.67;13.50;;;;;;;;;;7298234;19;20368;-46
2022/03/05 08:51:46;;;;;;;20.37;12.50;;;;;;;;;;7300896;19;20139;-46
2022/03/05 08:54:21;;;;;;;23.53;12.30;;;;;;;;;;7302293;19;20737;-46
2022/03/05 08:56:53;;;;;;;18.25;11.00;;;;;;;;;;7306019;19;20385;-46
2022/03/05 08:59:25;;;;;;;24.07;12.37;;;;;;;;;;7296231;19;20510;-46
2022/03/05 09:01:57;;;;;;;21.53;11.33;;;;;;;;;;7298359;19;20977;-47
2022/03/05 09:04:26;;;;;;;23.13;13.00;;;;;;;;;;7299977;19;20850;-47
2022/03/05 09:06:58;;;;;;;19.13;11.90;;;;;;;;;;7297953;19;20932;-46
2022/03/05 09:09:33;;;;;;;17.00;10.57;;;;;;;;;;7299513;19;21554;-46
2022/03/05 09:12:03;;;;;;;16.77;11.73;;;;;;;;;;7298046;19;20420;-46
2022/03/05 09:14:32;;;;;;;17.00;11.13;;;;;;;;;;7290076;19;20412;-45
2022/03/05 09:17:02;;;;;;;20.67;12.60;;;;;;;;;;7301676;19;20871;-46
2022/03/05 09:19:31;;;;;;;17.90;11.60;;;7.50;42.30;;;;;;7288815;19;20850;-45
2022/03/05 09:22:07;;;;;;;17.13;11.80;;;12.70;31.00;;;;;;7290956;19;20387;-46
2022/03/05 09:24:39;;;;;;;15.17;11.67;;;13.60;30.00;;;;;;7295999;19;20774;-46
2022/03/05 09:27:11;;;;;;;17.90;12.83;;;14.30;29.20;;;;;;7297724;19;21211;-47
2022/03/05 09:29:41;;;;;;;17.87;12.47;;;15.60;27.70;;;;;;7294358;19;21000;-45
2022/03/05 09:32:13;;;;;;;19.23;13.03;;;15.20;27.60;;;;;;7283869;19;20881;-47
2022/03/05 09:34:43;;;;;;;16.93;13.33;;;15.90;26.30;;;;;;7278131;19;21656;-47
2022/03/05 09:37:12;;;;;;;16.13;11.13;;;17.00;26.00;;;;;;7270392;19;20737;-47
2022/03/05 09:39:44;;;;;;;17.03;12.30;;;17.10;25.20;;;;;;7287334;19;21982;-46
2022/03/05 09:42:19;;;;;;;15.53;11.83;;;16.90;24.50;;;;;;7280233;19;20965;-46
2022/03/05 09:44:48;;;;;;;14.27;10.50;;;16.30;24.80;;;;;;7290437;19;20447;-47
2022/03/05 09:47:21;;;;;;;13.33;10.73;;;16.70;25.10;;;;;;7296634;19;21304;-47
2022/03/05 09:49:53;;;;;;;16.63;10.77;;;17.80;24.30;;;;;;7314783;19;21053;-48
2022/03/05 09:52:25;;;;;;;14.77;11.53;;;19.00;23.10;;;;;;7351915;19;20455;-47
2022/03/05 09:55:03;;;;;;;113.47;12.60;;;19.10;22.00;;;;;;7365153;19;20766;-46
2022/03/05 09:57:33;;;;;;;14.33;9.80;;;19.70;21.70;;;;;;7345666;19;20495;-48
2022/03/05 10:00:02;;;;;;;16.33;10.80;;;19.30;21.60;;;;;;7332781;19;20520;-48
2022/03/05 10:02:34;;;;;;;13.97;10.80;;;19.10;21.50;;;;;;7367953;19;20417;-47
2022/03/05 10:05:21;;;;;;;12.33;9.37;;;19.40;21.20;;;;;;7367792;19;20380;-46
2022/03/05 10:08:07;;;;;;;13.53;10.10;;;20.00;21.20;;;;;;7371822;19;20408;-48
2022/03/05 10:10:54;;;;;;;14.50;10.80;;;21.00;20.60;;;;;;7367662;19;20368;-48
2022/03/05 10:13:28;;;;;;;10.40;8.90;;;21.90;19.20;;;;;;7364209;19;20380;-48
2022/03/05 10:16:00;;;;;;;12.13;9.70;;;22.60;18.90;;;;;;7363318;19;20900;-47
2022/03/05 10:18:31;;;;;;;12.50;10.07;;;22.90;18.20;;;;;;7374533;19;20387;-48
2022/03/05 10:21:02;;;;;;;14.40;10.20;;;22.90;18.40;;;;;;7374441;19;20368;-48
2022/03/05 10:23:36;;;;;;;11.50;9.20;;;23.40;18.60;;;;;;7376433;19;20906;-47
2022/03/05 10:26:10;;;;;;;12.47;11.13;;;22.80;17.80;;;;;;7376038;19;20380;-48
2022/03/05 10:28:41;;;;;;;16.17;10.80;;;23.60;18.30;;;;;;7375334;19;20376;-49
2022/03/05 10:31:12;;;;;;;13.50;11.30;;;24.60;17.80;;;;;;7374096;19;20420;-47
2022/03/05 10:33:44;;;;;;;11.63;9.90;;;24.40;17.60;;;;;;7374056;19;20478;-48
2022/03/05 10:36:23;;;;;;;14.17;11.50;;;24.50;17.20;;;;;;7371065;19;20902;-48
2022/03/05 10:38:54;;;;;;;14.03;10.60;;;24.60;17.40;;;;;;7378189;19;20375;-48
2022/03/05 10:41:36;;;;;;;13.60;11.17;;;24.70;17.70;;;;;;7370310;19;20372;-48
2022/03/05 10:44:07;;;;;;;12.77;10.17;;;25.50;17.10;;;;;;7372353;19;20416;-47
2022/03/05 10:46:40;;;;;;;12.10;9.77;;;26.00;16.80;;;;;;7376566;19;20387;-48
2022/03/05 10:49:18;;;;;;;11.77;10.53;;;26.60;15.60;;;;;;7373755;19;20392;-47
2022/03/05 10:51:52;;;;;;;13.13;10.50;;;26.40;16.20;;;;;;7372279;19;20428;-47
2022/03/05 10:54:29;;;;;;;11.03;9.93;;;25.80;16.60;;;;;;7376513;19;20408;-47
2022/03/05 10:57:10;;;;;;;12.17;10.90;;;26.60;16.00;;;;;;7375719;19;20387;-47
2022/03/05 10:59:43;;;;;;;10.93;9.37;;;26.70;15.60;;;;;;7376289;19;20397;-47
2022/03/05 11:02:14;;;;;;;10.53;9.17;;;26.30;15.60;;;;;;7374678;19;20384;-47
2022/03/05 11:04:45;;;;;;;12.40;10.40;;;25.90;16.40;;;;;;7376925;19;20902;-47
2022/03/05 11:07:19;;;;;;;11.20;9.10;;;25.70;16.90;;;;;;7374976;19;20925;-47
2022/03/05 11:09:50;;;;;;;10.70;9.10;;;26.30;15.60;;;;;;7374079;19;20379;-47
2022/03/05 11:12:24;;;;;;;11.63;9.60;;;23.60;17.20;;;;;;7376244;19;20381;-48
2022/03/05 11:14:54;;;;;;;10.23;9.13;;;22.60;17.80;;;;;;7376281;19;20397;-47
2022/03/05 11:17:24;;;;;;;12.70;9.33;;;20.80;18.90;;;;;;7371520;19;20375;-47
2022/03/05 11:19:54;;;;;;;10.33;9.00;;;19.50;19.90;;;;;;7371054;19;20444;-47
2022/03/05 11:22:24;;;;;;;10.93;9.17;;;21.70;19.40;;;;;;7375208;19;20412;-47
2022/03/05 11:24:53;;;;;;;11.60;9.30;;;24.20;17.80;;;;;;7373044;19;20372;-47
2022/03/05 11:27:25;;;;;;;11.70;9.57;;;25.50;16.50;;;;;;7373587;19;20451;-48
2022/03/05 11:29:59;;;;;;;11.57;9.47;;;27.10;15.60;;;;;;7372582;19;20376;-47
2022/03/05 11:32:32;;;;;;;10.53;9.07;;;26.80;15.20;;;;;;7376108;19;20949;-48
2022/03/05 11:35:02;;;;;;;11.63;9.10;;;24.50;16.40;;;;;;7372607;19;20422;-47
2022/03/05 11:37:35;;;;;;;10.50;8.00;;;21.60;18.30;;;;;;7373741;19;20407;-47
2022/03/05 11:40:07;;;;;;;10.27;8.70;;;19.70;18.90;;;;;;7371849;19;20412;-47
2022/03/05 11:42:41;;;;;;;9.97;7.90;;;21.30;18.90;;;;;;7374472;19;20384;-47
2022/03/05 11:45:27;;;;;;;10.77;8.47;;;24.30;16.30;;;;;;7371571;19;20368;-48
2022/03/05 11:48:38;;;;;;;9.10;7.53;;;24.80;16.00;;;;;;7372055;19;20420;-47
2022/03/05 11:51:12;;;;;;;10.73;8.53;;;22.50;16.60;;;;;;7374773;19;20783;-47
2022/03/05 11:53:44;;;;;;;10.23;9.23;;;21.30;18.10;;;;;;7372227;19;20379;-48
2022/03/05 11:56:24;;;;;;;8.87;7.27;;;21.60;17.40;;;;;;7368961;19;20379;-48
2022/03/05 11:58:57;;;;;;;11.53;8.90;;;21.00;17.40;;;;;;7371066;19;20404;-48
2022/03/05 12:01:53;;;;;;;9.37;6.80;;;19.90;18.20;;;;;;7369916;19;20928;-48
2022/03/05 12:04:26;;;;;;;8.20;6.67;;;18.90;18.80;;;;;;7372294;19;20449;-48
2022/03/05 12:07:01;;;;;;;9.27;7.13;;;21.50;18.60;;;;;;7373445;19;20395;-48
2022/03/05 12:09:36;;;;;;;7.70;6.90;;;24.50;16.30;;;;;;7370513;19;20752;-48
2022/03/05 12:12:10;;;;;;;9.57;8.10;;;24.20;16.20;;;;;;7371422;19;20929;-48
2022/03/05 12:15:13;;;;;;;9.20;7.10;;;23.70;15.70;;;;;;7374967;19;20806;-47
2022/03/05 12:17:52;;;;;;;9.97;7.93;;;20.80;17.10;;;;;;7370399;19;20932;-45
2022/03/05 12:20:29;;;;;;;8.00;6.90;;;18.80;18.70;;;;;;7373133;19;20735;-46
2022/03/05 12:23:04;;;;;;;9.20;7.40;;;17.50;19.60;;;;;;7373298;19;20411;-46
2022/03/05 12:25:37;;;;;;;10.77;8.07;;;19.90;19.40;;;;;;7374354;19;20902;-46
2022/03/05 12:28:08;;;;;;;9.17;6.53;;;23.60;16.90;;;;;;7374475;19;20371;-47
2022/03/05 12:30:43;;;;;;;10.53;7.40;;;26.50;15.20;;;;;;7371982;19;20412;-48
2022/03/05 12:33:15;;;;;;;10.70;6.97;;;27.80;14.20;;;;;;7372874;19;20372;-47
2022/03/05 12:35:48;;;;;;;9.10;7.57;;;28.60;13.70;;;;;;7376353;19;20420;-48
2022/03/05 12:38:21;;;;;;;8.60;7.33;;;29.00;13.70;;;;;;7377455;19;20730;-48
2022/03/05 12:40:55;;;;;;;8.27;7.47;;;29.90;12.90;;;;;;7371154;19;20384;-48
2022/03/05 12:43:27;;;;;;;9.50;7.73;;;30.70;12.60;;;;;;7378253;19;20380;-48
2022/03/05 12:45:59;;;;;;;12.10;7.30;;;30.40;12.40;;;;;;7381792;19;21034;-48
2022/03/05 12:48:29;;;;;;;10.70;8.43;;;28.40;12.60;;;;;;7352274;19;21024;-48
2022/03/05 12:50:59;;;;;;;9.27;7.80;;;26.30;13.80;;;;;;7363463;19;20420;-48
2022/03/05 12:53:31;;;;;;;10.43;8.37;;;25.80;14.40;;;;;;7352995;19;20401;-48
2022/03/05 12:56:02;;;;;;;8.50;7.00;;;26.00;14.60;;;;;;7356801;19;20372;-48
2022/03/05 12:58:35;;;;;;;10.30;7.23;;;27.40;14.10;;;;;;7345407;19;20360;-49
2022/03/05 13:01:11;;;;;;;8.40;7.40;;;28.50;13.50;;;;;;7357349;19;20413;-50
2022/03/05 13:03:41;;;;;;;7.50;6.70;;;28.70;12.90;;;;;;7353535;19;20470;-49
2022/03/05 13:06:15;;;;;;;7.50;6.80;;;28.00;13.70;;;;;;7348617;19;21037;-49
2022/03/05 13:08:47;;;;;;;7.50;6.63;;;24.70;14.30;;;;;;7354982;19;20408;-48
2022/03/05 13:11:18;;;;;;;8.13;6.67;;;25.70;15.20;;;;;;7363914;19;20372;-48
2022/03/05 13:13:53;;;;;;;11.80;7.33;;;27.00;14.40;;;;;;7355019;19;21034;-48